sensor_id;sensor_type;location;lat;lon;timestamp;pressure;altitude;pressure_sealevel;temperature
84287;BMP280;74445;55.252;61.092;2024-02-26T00:00:17;121952.66;;;-9.21
84287;BMP280;74445;55.252;61.092;2024-02-26T00:02:44;121635.28;;;-9.24
84287;BMP280;74445;55.252;61.092;2024-02-26T00:05:11;121631.16;;;-9.26
84287;BMP280;74445;55.252;61.092;2024-02-26T00:07:37;121313.78;;;-9.28
84287;BMP280;74445;55.252;61.092;2024-02-26T00:10:06;121928.91;;;-9.33
84287;BMP280;74445;55.252;61.092;2024-02-26T00:12:33;121610.53;;;-9.36
84287;BMP280;74445;55.252;61.092;2024-02-26T00:15:02;122227.59;;;-9.39
84287;BMP280;74445;55.252;61.092;2024-02-26T00:17:30;122528.31;;;-9.45
84287;BMP280;74445;55.252;61.092;2024-02-26T00:19:57;122838.38;;;-9.46
84287;BMP280;74445;55.252;61.092;2024-02-26T00:22:23;122523.13;;;-9.47
84287;BMP280;74445;55.252;61.092;2024-02-26T00:24:50;117851.63;;;-9.42
84287;BMP280;74445;55.252;61.092;2024-02-26T00:27:16;116404.72;;;-9.43
84287;BMP280;74445;55.252;61.092;2024-02-26T00:29:43;117829.59;;;-9.45
84287;BMP280;74445;55.252;61.092;2024-02-26T00:32:11;117221.44;;;-9.45
84287;BMP280;74445;55.252;61.092;2024-02-26T00:34:38;117838.66;;;-9.49
84287;BMP280;74445;55.252;61.092;2024-02-26T00:37:04;117078.47;;;-9.47
84287;BMP280;74445;55.252;61.092;2024-02-26T00:39:31;116588.34;;;-9.50
84287;BMP280;74445;55.252;61.092;2024-02-26T00:41:58;115609.22;;;-9.49
84287;BMP280;74445;55.252;61.092;2024-02-26T00:44:24;116265.50;;;-9.53
84287;BMP280;74445;55.252;61.092;2024-02-26T00:46:51;116343.41;;;-9.55
84287;BMP280;74445;55.252;61.092;2024-02-26T00:49:19;115820.75;;;-9.56
84287;BMP280;74445;55.252;61.092;2024-02-26T00:51:46;115386.78;;;-9.58
84287;BMP280;74445;55.252;61.092;2024-02-26T00:54:12;115382.88;;;-9.60
84287;BMP280;74445;55.252;61.092;2024-02-26T00:56:39;114956.28;;;-9.60
84287;BMP280;74445;55.252;61.092;2024-02-26T00:59:06;114070.00;;;-9.60
84287;BMP280;74445;55.252;61.092;2024-02-26T01:01:32;113031.63;;;-9.60
84287;BMP280;74445;55.252;61.092;2024-02-26T01:03:59;111974.69;;;-9.59
84287;BMP280;74445;55.252;61.092;2024-02-26T01:06:27;111232.22;;;-9.59
84287;BMP280;74445;55.252;61.092;2024-02-26T01:08:54;109256.72;;;-9.57
84287;BMP280;74445;55.252;61.092;2024-02-26T01:11:20;107551.41;;;-9.56
84287;BMP280;74445;55.252;61.092;2024-02-26T01:13:47;106353.03;;;-9.52
84287;BMP280;74445;55.252;61.092;2024-02-26T01:16:14;104493.41;;;-9.50
84287;BMP280;74445;55.252;61.092;2024-02-26T01:18:41;102521.13;;;-9.46
84287;BMP280;74445;55.252;61.092;2024-02-26T01:21:07;100596.56;;;-9.43
84287;BMP280;74445;55.252;61.092;2024-02-26T01:23:37;98259.91;;;-9.38
84287;BMP280;74445;55.252;61.092;2024-02-26T01:26:05;96000.22;;;-9.30
84287;BMP280;74445;55.252;61.092;2024-02-26T01:28:32;93788.88;;;-9.26
84287;BMP280;74445;55.252;61.092;2024-02-26T01:30:59;91315.47;;;-9.20
84287;BMP280;74445;55.252;61.092;2024-02-26T01:33:26;87856.66;;;-9.15
84287;BMP280;74445;55.252;61.092;2024-02-26T01:35:53;85985.78;;;-9.10
84287;BMP280;74445;55.252;61.092;2024-02-26T01:38:19;84970.19;;;-9.08
84287;BMP280;74445;55.252;61.092;2024-02-26T01:40:48;83435.81;;;-9.05
84287;BMP280;74445;55.252;61.092;2024-02-26T01:43:15;81756.06;;;-8.99
84287;BMP280;74445;55.252;61.092;2024-02-26T01:45:42;80415.41;;;-8.92
84287;BMP280;74445;55.252;61.092;2024-02-26T01:48:09;79010.09;;;-8.87
84287;BMP280;74445;55.252;61.092;2024-02-26T01:50:37;77074.38;;;-8.79
84287;BMP280;74445;55.252;61.092;2024-02-26T01:53:04;75845.31;;;-8.75
84287;BMP280;74445;55.252;61.092;2024-02-26T01:55:31;75152.34;;;-8.69
84287;BMP280;74445;55.252;61.092;2024-02-26T01:58:00;72601.72;;;-8.68
84287;BMP280;74445;55.252;61.092;2024-02-26T02:00:27;71952.84;;;-8.67
84287;BMP280;74445;55.252;61.092;2024-02-26T02:02:55;72108.34;;;-8.67
84287;BMP280;74445;55.252;61.092;2024-02-26T02:05:23;72071.22;;;-8.66
84287;BMP280;74445;55.252;61.092;2024-02-26T02:07:50;71669.91;;;-8.65
84287;BMP280;74445;55.252;61.092;2024-02-26T02:10:18;71296.03;;;-8.63
84287;BMP280;74445;55.252;61.092;2024-02-26T02:12:49;71083.16;;;-8.64
84287;BMP280;74445;55.252;61.092;2024-02-26T02:15:17;70906.28;;;-8.63
84287;BMP280;74445;55.252;61.092;2024-02-26T02:17:44;70767.22;;;-8.63
84287;BMP280;74445;55.252;61.092;2024-02-26T02:20:16;70156.63;;;-8.61
84287;BMP280;74445;55.252;61.092;2024-02-26T02:22:48;69838.84;;;-8.64
84287;BMP280;74445;55.252;61.092;2024-02-26T02:25:14;68736.25;;;-8.71
84287;BMP280;74445;55.252;61.092;2024-02-26T02:27:42;68444.84;;;-8.76
84287;BMP280;74445;55.252;61.092;2024-02-26T02:30:11;69172.31;;;-8.76
84287;BMP280;74445;55.252;61.092;2024-02-26T02:32:39;69252.22;;;-8.76
84287;BMP280;74445;55.252;61.092;2024-02-26T02:35:14;69440.06;;;-8.78
84287;BMP280;74445;55.252;61.092;2024-02-26T02:37:41;69287.66;;;-8.81
84287;BMP280;74445;55.252;61.092;2024-02-26T02:40:10;69154.75;;;-8.84
84287;BMP280;74445;55.252;61.092;2024-02-26T02:42:37;69277.31;;;-8.86
84287;BMP280;74445;55.252;61.092;2024-02-26T02:45:04;69354.78;;;-8.88
84287;BMP280;74445;55.252;61.092;2024-02-26T02:47:31;69307.25;;;-8.91
84287;BMP280;74445;55.252;61.092;2024-02-26T02:49:57;68993.88;;;-8.92
84287;BMP280;74445;55.252;61.092;2024-02-26T02:52:24;68490.97;;;-8.93
84287;BMP280;74445;55.252;61.092;2024-02-26T02:54:50;67861.88;;;-8.95
84287;BMP280;74445;55.252;61.092;2024-02-26T02:57:18;66603.56;;;-8.93
84287;BMP280;74445;55.252;61.092;2024-02-26T02:59:46;66383.72;;;-8.87
84287;BMP280;74445;55.252;61.092;2024-02-26T03:02:13;66234.50;;;-8.79
84287;BMP280;74445;55.252;61.092;2024-02-26T03:04:39;65456.75;;;-8.74
84287;BMP280;74445;55.252;61.092;2024-02-26T03:07:06;64577.56;;;-8.69
84287;BMP280;74445;55.252;61.092;2024-02-26T03:09:33;64183.75;;;-8.64
84287;BMP280;74445;55.252;61.092;2024-02-26T03:11:59;64112.97;;;-8.57
84287;BMP280;74445;55.252;61.092;2024-02-26T03:14:28;64090.66;;;-8.47
84287;BMP280;74445;55.252;61.092;2024-02-26T03:16:55;64172.31;;;-8.39
84287;BMP280;74445;55.252;61.092;2024-02-26T03:19:22;64166.50;;;-8.29
84287;BMP280;74445;55.252;61.092;2024-02-26T03:21:49;64675.25;;;-8.20
84287;BMP280;74445;55.252;61.092;2024-02-26T03:24:16;65436.75;;;-8.09
84287;BMP280;74445;55.252;61.092;2024-02-26T03:26:43;65945.59;;;-7.96
84287;BMP280;74445;55.252;61.092;2024-02-26T03:29:09;67217.41;;;-7.82
84287;BMP280;74445;55.252;61.092;2024-02-26T03:31:38;68790.41;;;-7.68
84287;BMP280;74445;55.252;61.092;2024-02-26T03:34:04;71988.34;;;-7.51
84287;BMP280;74445;55.252;61.092;2024-02-26T03:36:31;78096.88;;;-7.33
84287;BMP280;74445;55.252;61.092;2024-02-26T03:38:57;81397.53;;;-7.13
84287;BMP280;74445;55.252;61.092;2024-02-26T03:41:25;80764.59;;;-6.91
84287;BMP280;74445;55.252;61.092;2024-02-26T03:43:51;92434.47;;;-6.70
84287;BMP280;74445;55.252;61.092;2024-02-26T03:46:18;103926.19;;;-6.52
84287;BMP280;74445;55.252;61.092;2024-02-26T03:48:46;107036.13;;;-6.35
84287;BMP280;74445;55.252;61.092;2024-02-26T03:51:13;116372.31;;;-6.22
84287;BMP280;74445;55.252;61.092;2024-02-26T03:53:39;123951.75;;;-6.17
84287;BMP280;74445;55.252;61.092;2024-02-26T03:56:07;130130.16;;;-6.08
84287;BMP280;74445;55.252;61.092;2024-02-26T03:58:33;139043.72;;;-6.02
84287;BMP280;74445;55.252;61.092;2024-02-26T04:01:01;140042.56;;;-5.95
84287;BMP280;74445;55.252;61.092;2024-02-26T04:03:28;143681.53;;;-5.90
84287;BMP280;74445;55.252;61.092;2024-02-26T04:05:56;143708.13;;;-5.79
84287;BMP280;74445;55.252;61.092;2024-02-26T04:08:23;143732.22;;;-5.69
84287;BMP280;74445;55.252;61.092;2024-02-26T04:10:50;143756.38;;;-5.59
84287;BMP280;74445;55.252;61.092;2024-02-26T04:13:17;143782.97;;;-5.48
84287;BMP280;74445;55.252;61.092;2024-02-26T04:15:44;143798.66;;;-5.41
84287;BMP280;74445;55.252;61.092;2024-02-26T04:18:10;143816.81;;;-5.34
84287;BMP280;74445;55.252;61.092;2024-02-26T04:20:37;143855.47;;;-5.18
84287;BMP280;74445;55.252;61.092;2024-02-26T04:23:05;143896.53;;;-5.01
84287;BMP280;74445;55.252;61.092;2024-02-26T04:25:31;143941.28;;;-4.83
84287;BMP280;74445;55.252;61.092;2024-02-26T04:27:58;143988.41;;;-4.63
84287;BMP280;74445;55.252;61.092;2024-02-26T04:30:25;144021.09;;;-4.50
84287;BMP280;74445;55.252;61.092;2024-02-26T04:32:51;144054.94;;;-4.36
84287;BMP280;74445;55.252;61.092;2024-02-26T04:35:18;144115.44;;;-4.11
84287;BMP280;74445;55.252;61.092;2024-02-26T04:37:45;144143.22;;;-3.99
84287;BMP280;74445;55.252;61.092;2024-02-26T04:40:13;144179.53;;;-3.84
84287;BMP280;74445;55.252;61.092;2024-02-26T04:42:39;144190.41;;;-3.80
84287;BMP280;74445;55.252;61.092;2024-02-26T04:45:07;144218.25;;;-3.69
84287;BMP280;74445;55.252;61.092;2024-02-26T04:47:34;144247.31;;;-3.57
84287;BMP280;74445;55.252;61.092;2024-02-26T04:50:01;144244.88;;;-3.58
84287;BMP280;74445;55.252;61.092;2024-02-26T04:52:28;144266.66;;;-3.49
84287;BMP280;74445;55.252;61.092;2024-02-26T04:54:55;144286.03;;;-3.41
84287;BMP280;74445;55.252;61.092;2024-02-26T04:57:23;144305.41;;;-3.33
84287;BMP280;74445;55.252;61.092;2024-02-26T04:59:49;144346.56;;;-3.16
84287;BMP280;74445;55.252;61.092;2024-02-26T05:02:16;144391.34;;;-2.97
84287;BMP280;74445;55.252;61.092;2024-02-26T05:04:43;144410.72;;;-2.89
84287;BMP280;74445;55.252;61.092;2024-02-26T05:07:09;144454.31;;;-2.71
84287;BMP280;74445;55.252;61.092;2024-02-26T05:09:36;144497.94;;;-2.53
84287;BMP280;74445;55.252;61.092;2024-02-26T05:12:03;144496.69;;;-2.54
84287;BMP280;74445;55.252;61.092;2024-02-26T05:14:31;144479.78;;;-2.61
84287;BMP280;74445;55.252;61.092;2024-02-26T05:16:58;144517.31;;;-2.46
84287;BMP280;74445;55.252;61.092;2024-02-26T05:19:24;144558.50;;;-2.29
84287;BMP280;74445;55.252;61.092;2024-02-26T05:21:51;144617.88;;;-2.04
84287;BMP280;74445;55.252;61.092;2024-02-26T05:24:17;144670.00;;;-1.83
84287;BMP280;74445;55.252;61.092;2024-02-26T05:26:44;144734.25;;;-1.56
84287;BMP280;74445;55.252;61.092;2024-02-26T05:29:11;144805.75;;;-1.27
84287;BMP280;74445;55.252;61.092;2024-02-26T05:31:41;144897.94;;;-0.89
84287;BMP280;74445;55.252;61.092;2024-02-26T05:34:08;144940.44;;;-0.72
84287;BMP280;74445;55.252;61.092;2024-02-26T05:36:35;145007.13;;;-0.44
84287;BMP280;74445;55.252;61.092;2024-02-26T05:39:01;145054.50;;;-0.25
84287;BMP280;74445;55.252;61.092;2024-02-26T05:41:30;145082.38;;;-0.13
84287;BMP280;74445;55.252;61.092;2024-02-26T05:43:57;145092.09;;;-0.09
84287;BMP280;74445;55.252;61.092;2024-02-26T05:46:23;145129.72;;;0.06
84287;BMP280;74445;55.252;61.092;2024-02-26T05:48:52;145144.28;;;0.12
84287;BMP280;74445;55.252;61.092;2024-02-26T05:51:19;145173.44;;;0.24
84287;BMP280;74445;55.252;61.092;2024-02-26T05:53:45;145205.00;;;0.37
84287;BMP280;74445;55.252;61.092;2024-02-26T05:56:13;145241.44;;;0.52
84287;BMP280;74445;55.252;61.092;2024-02-26T05:58:40;145262.09;;;0.60
84287;BMP280;74445;55.252;61.092;2024-02-26T06:01:06;145304.59;;;0.78
84287;BMP280;74445;55.252;61.092;2024-02-26T06:03:33;145361.72;;;1.01
84287;BMP280;74445;55.252;61.092;2024-02-26T06:06:01;145418.81;;;1.24
84287;BMP280;74445;55.252;61.092;2024-02-26T06:08:28;145491.75;;;1.54
84287;BMP280;74445;55.252;61.092;2024-02-26T06:10:55;145603.59;;;2.00
84287;BMP280;74445;55.252;61.092;2024-02-26T06:13:21;145770.22;;;2.68
84287;BMP280;74445;55.252;61.092;2024-02-26T06:15:49;145936.94;;;3.37
84287;BMP280;74445;55.252;61.092;2024-02-26T06:18:15;146104.97;;;4.05
84287;BMP280;74445;55.252;61.092;2024-02-26T06:20:42;146247.50;;;4.64
84287;BMP280;74445;55.252;61.092;2024-02-26T06:23:11;146397.41;;;5.25
84287;BMP280;74445;55.252;61.092;2024-02-26T06:25:38;146573.06;;;5.97
84287;BMP280;74445;55.252;61.092;2024-02-26T06:28:05;146606.03;;;6.10
84287;BMP280;74445;55.252;61.092;2024-02-26T06:30:33;146631.63;;;6.21
84287;BMP280;74445;55.252;61.092;2024-02-26T06:32:59;146713.34;;;6.54
84287;BMP280;74445;55.252;61.092;2024-02-26T06:35:27;146758.53;;;6.72
84287;BMP280;74445;55.252;61.092;2024-02-26T06:37:54;146820.78;;;6.98
84287;BMP280;74445;55.252;61.092;2024-02-26T06:40:22;146919.69;;;7.38
84287;BMP280;74445;55.252;61.092;2024-02-26T06:42:50;146939.25;;;7.46
84287;BMP280;74445;55.252;61.092;2024-02-26T06:45:19;147036.91;;;7.86
84287;BMP280;74445;55.252;61.092;2024-02-26T06:47:47;147017.38;;;7.78
84287;BMP280;74445;55.252;61.092;2024-02-26T06:50:14;147107.78;;;8.15
84287;BMP280;74445;55.252;61.092;2024-02-26T06:52:44;147134.72;;;8.26
84287;BMP280;74445;55.252;61.092;2024-02-26T06:55:13;147293.63;;;8.90
84287;BMP280;74445;55.252;61.092;2024-02-26T06:57:41;147408.56;;;9.37
84287;BMP280;74445;55.252;61.092;2024-02-26T07:00:09;147355.94;;;9.16
84287;BMP280;74445;55.252;61.092;2024-02-26T07:02:41;147376.75;;;9.24
84287;BMP280;74445;55.252;61.092;2024-02-26T07:05:08;147451.34;;;9.55
84287;BMP280;74445;55.252;61.092;2024-02-26T07:07:37;147527.19;;;9.86
84287;BMP280;74445;55.252;61.092;2024-02-26T07:10:05;147627.59;;;10.26
84287;BMP280;74445;55.252;61.092;2024-02-26T07:12:33;147715.72;;;10.62
84287;BMP280;74445;55.252;61.092;2024-02-26T07:15:01;147747.56;;;10.75
84287;BMP280;74445;55.252;61.092;2024-02-26T07:17:30;147724.28;;;10.66
84287;BMP280;74445;55.252;61.092;2024-02-26T07:19:57;147707.13;;;10.59
84287;BMP280;74445;55.252;61.092;2024-02-26T07:22:25;147729.16;;;10.68
84287;BMP280;74445;55.252;61.092;2024-02-26T07:24:51;147846.72;;;11.16
84287;BMP280;74445;55.252;61.092;2024-02-26T07:27:19;147926.31;;;11.48
84287;BMP280;74445;55.252;61.092;2024-02-26T07:29:49;148132.22;;;12.32
84287;BMP280;74445;55.252;61.092;2024-02-26T07:32:17;148198.41;;;12.59
84287;BMP280;74445;55.252;61.092;2024-02-26T07:34:45;148159.19;;;12.43
84287;BMP280;74445;55.252;61.092;2024-02-26T07:37:13;148159.19;;;12.43
84287;BMP280;74445;55.252;61.092;2024-02-26T07:39:39;147993.75;;;11.75
84287;BMP280;74445;55.252;61.092;2024-02-26T07:42:07;148012.09;;;11.83
84287;BMP280;74445;55.252;61.092;2024-02-26T07:44:35;148015.81;;;11.84
84287;BMP280;74445;55.252;61.092;2024-02-26T07:47:01;148013.34;;;11.83
84287;BMP280;74445;55.252;61.092;2024-02-26T07:49:30;148207.00;;;12.62
84287;BMP280;74445;55.252;61.092;2024-02-26T07:51:57;148106.50;;;12.21
84287;BMP280;74445;55.252;61.092;2024-02-26T07:54:25;148116.31;;;12.25
84287;BMP280;74445;55.252;61.092;2024-02-26T07:56:52;147873.66;;;11.27
84287;BMP280;74445;55.252;61.092;2024-02-26T07:59:19;147721.81;;;10.65
84287;BMP280;74445;55.252;61.092;2024-02-26T08:01:49;147543.13;;;9.92
84287;BMP280;74445;55.252;61.092;2024-02-26T08:04:17;147382.84;;;9.27
84287;BMP280;74445;55.252;61.092;2024-02-26T08:06:49;147227.59;;;8.64
84287;BMP280;74445;55.252;61.092;2024-02-26T08:09:15;147117.59;;;8.19
84287;BMP280;74445;55.252;61.092;2024-02-26T08:11:42;147022.25;;;7.80
84287;BMP280;74445;55.252;61.092;2024-02-26T08:14:09;146979.53;;;7.62
84287;BMP280;74445;55.252;61.092;2024-02-26T08:16:36;146814.69;;;6.95
84287;BMP280;74445;55.252;61.092;2024-02-26T08:19:03;146736.56;;;6.63
84287;BMP280;74445;55.252;61.092;2024-02-26T08:21:29;146686.50;;;6.43
84287;BMP280;74445;55.252;61.092;2024-02-26T08:23:57;146631.63;;;6.21
84287;BMP280;74445;55.252;61.092;2024-02-26T08:26:25;146547.47;;;5.86
84287;BMP280;74445;55.252;61.092;2024-02-26T08:28:52;146536.47;;;5.82
84287;BMP280;74445;55.252;61.092;2024-02-26T08:31:20;146421.78;;;5.35
84287;BMP280;74445;55.252;61.092;2024-02-26T08:33:47;146419.34;;;5.34
84287;BMP280;74445;55.252;61.092;2024-02-26T08:36:13;146320.63;;;4.94
84287;BMP280;74445;55.252;61.092;2024-02-26T08:38:40;146179.25;;;4.36
84287;BMP280;74445;55.252;61.092;2024-02-26T08:41:09;146197.56;;;4.43
84287;BMP280;74445;55.252;61.092;2024-02-26T08:43:37;146132.97;;;4.17
84287;BMP280;74445;55.252;61.092;2024-02-26T08:46:04;146136.63;;;4.18
84287;BMP280;74445;55.252;61.092;2024-02-26T08:48:31;146171.94;;;4.33
84287;BMP280;74445;55.252;61.092;2024-02-26T08:50:58;146081.81;;;3.96
84287;BMP280;74445;55.252;61.092;2024-02-26T08:53:25;146044.06;;;3.80
84287;BMP280;74445;55.252;61.092;2024-02-26T08:55:53;146072.06;;;3.92
84287;BMP280;74445;55.252;61.092;2024-02-26T08:58:21;146030.69;;;3.75
84287;BMP280;74445;55.252;61.092;2024-02-26T09:00:48;146011.22;;;3.67
84287;BMP280;74445;55.252;61.092;2024-02-26T09:03:15;145960.06;;;3.46
84287;BMP280;74445;55.252;61.092;2024-02-26T09:05:43;145995.38;;;3.61
84287;BMP280;74445;55.252;61.092;2024-02-26T09:08:10;145956.41;;;3.45
84287;BMP280;74445;55.252;61.092;2024-02-26T09:10:37;145919.88;;;3.30
84287;BMP280;74445;55.252;61.092;2024-02-26T09:13:05;145861.47;;;3.06
84287;BMP280;74445;55.252;61.092;2024-02-26T09:15:33;145812.78;;;2.86
84287;BMP280;74445;55.252;61.092;2024-02-26T09:18:00;145753.19;;;2.61
84287;BMP280;74445;55.252;61.092;2024-02-26T09:20:28;145728.84;;;2.51
84287;BMP280;74445;55.252;61.092;2024-02-26T09:22:56;145733.72;;;2.53
84287;BMP280;74445;55.252;61.092;2024-02-26T09:25:22;145675.31;;;2.30
84287;BMP280;74445;55.252;61.092;2024-02-26T09:27:50;145654.66;;;2.21
84287;BMP280;74445;55.252;61.092;2024-02-26T09:30:17;145643.69;;;2.17
84287;BMP280;74445;55.252;61.092;2024-02-26T09:32:47;145635.22;;;2.13
84287;BMP280;74445;55.252;61.092;2024-02-26T09:35:17;145609.66;;;2.03
84287;BMP280;74445;55.252;61.092;2024-02-26T09:37:43;145610.88;;;2.03
84287;BMP280;74445;55.252;61.092;2024-02-26T09:40:11;145565.88;;;1.85
84287;BMP280;74445;55.252;61.092;2024-02-26T09:42:43;145503.91;;;1.59
84287;BMP280;74445;55.252;61.092;2024-02-26T09:45:12;145492.94;;;1.55
84287;BMP280;74445;55.252;61.092;2024-02-26T09:47:42;145479.59;;;1.49
84287;BMP280;74445;55.252;61.092;2024-02-26T09:50:11;145475.91;;;1.48
84287;BMP280;74445;55.252;61.092;2024-02-26T09:52:41;145465.00;;;1.43
84287;BMP280;74445;55.252;61.092;2024-02-26T09:55:09;145447.97;;;1.36
84287;BMP280;74445;55.252;61.092;2024-02-26T09:57:37;145426.09;;;1.27
84287;BMP280;74445;55.252;61.092;2024-02-26T10:00:05;145378.72;;;1.08
84287;BMP280;74445;55.252;61.092;2024-02-26T10:02:36;145370.19;;;1.05
84287;BMP280;74445;55.252;61.092;2024-02-26T10:05:05;145364.16;;;1.02
84287;BMP280;74445;55.252;61.092;2024-02-26T10:07:35;145355.63;;;0.99
84287;BMP280;74445;55.252;61.092;2024-02-26T10:10:03;145358.06;;;1.00
84287;BMP280;74445;55.252;61.092;2024-02-26T10:12:30;145356.84;;;0.99
84287;BMP280;74445;55.252;61.092;2024-02-26T10:14:59;145327.69;;;0.87
84287;BMP280;74445;55.252;61.092;2024-02-26T10:17:26;145324.03;;;0.86
84287;BMP280;74445;55.252;61.092;2024-02-26T10:19:54;145292.44;;;0.73
84287;BMP280;74445;55.252;61.092;2024-02-26T10:22:23;145259.69;;;0.59
84287;BMP280;74445;55.252;61.092;2024-02-26T10:24:51;145263.28;;;0.61
84287;BMP280;74445;55.252;61.092;2024-02-26T10:27:20;145226.84;;;0.46
84287;BMP280;74445;55.252;61.092;2024-02-26T10:29:47;145211.09;;;0.39
84287;BMP280;74445;55.252;61.092;2024-02-26T10:32:14;145195.28;;;0.33
84287;BMP280;74445;55.252;61.092;2024-02-26T10:34:41;145192.84;;;0.32
84287;BMP280;74445;55.252;61.092;2024-02-26T10:37:08;145154.00;;;0.16
84287;BMP280;74445;55.252;61.092;2024-02-26T10:39:37;145127.28;;;0.05
84287;BMP280;74445;55.252;61.092;2024-02-26T10:42:12;145113.94;;;-0.01
84287;BMP280;74445;55.252;61.092;2024-02-26T10:44:41;145082.38;;;-0.13
84287;BMP280;74445;55.252;61.092;2024-02-26T10:47:09;145053.25;;;-0.25
84287;BMP280;74445;55.252;61.092;2024-02-26T10:49:35;145019.28;;;-0.39
84287;BMP280;74445;55.252;61.092;2024-02-26T10:52:03;145007.13;;;-0.44
84287;BMP280;74445;55.252;61.092;2024-02-26T10:54:33;144998.66;;;-0.48
84287;BMP280;74445;55.252;61.092;2024-02-26T10:57:01;144990.16;;;-0.51
84287;BMP280;74445;55.252;61.092;2024-02-26T10:59:33;144984.09;;;-0.54
84287;BMP280;74445;55.252;61.092;2024-02-26T11:02:01;144947.69;;;-0.69
84287;BMP280;74445;55.252;61.092;2024-02-26T11:04:28;144928.28;;;-0.77
84287;BMP280;74445;55.252;61.092;2024-02-26T11:06:57;144917.34;;;-0.81
84287;BMP280;74445;55.252;61.092;2024-02-26T11:09:25;144908.88;;;-0.85
84287;BMP280;74445;55.252;61.092;2024-02-26T11:11:52;144879.75;;;-0.97
84287;BMP280;74445;55.252;61.092;2024-02-26T11:14:21;144862.78;;;-1.04
84287;BMP280;74445;55.252;61.092;2024-02-26T11:16:54;144839.72;;;-1.13
84287;BMP280;74445;55.252;61.092;2024-02-26T11:19:22;144836.09;;;-1.15
84287;BMP280;74445;55.252;61.092;2024-02-26T11:21:50;144832.44;;;-1.16
84287;BMP280;74445;55.252;61.092;2024-02-26T11:24:17;144807.00;;;-1.27
84287;BMP280;74445;55.252;61.092;2024-02-26T11:26:49;144788.81;;;-1.34
84287;BMP280;74445;55.252;61.092;2024-02-26T11:29:20;144771.84;;;-1.41
84287;BMP280;74445;55.252;61.092;2024-02-26T11:31:48;144754.88;;;-1.48
84287;BMP280;74445;55.252;61.092;2024-02-26T11:34:17;144741.50;;;-1.53
84287;BMP280;74445;55.252;61.092;2024-02-26T11:36:43;144718.50;;;-1.63
84287;BMP280;74445;55.252;61.092;2024-02-26T11:39:12;144700.28;;;-1.70
84287;BMP280;74445;55.252;61.092;2024-02-26T11:41:41;144691.81;;;-1.74
84287;BMP280;74445;55.252;61.092;2024-02-26T11:44:08;144655.47;;;-1.89
84287;BMP280;74445;55.252;61.092;2024-02-26T11:46:40;144622.72;;;-2.02
84287;BMP280;74445;55.252;61.092;2024-02-26T11:49:32;144627.56;;;-2.00
84287;BMP280;74445;55.252;61.092;2024-02-26T11:51:59;144600.91;;;-2.11
84287;BMP280;74445;55.252;61.092;2024-02-26T11:54:54;144596.06;;;-2.13
84287;BMP280;74445;55.252;61.092;2024-02-26T11:57:26;144570.63;;;-2.24
84287;BMP280;74445;55.252;61.092;2024-02-26T12:00:00;144531.84;;;-2.40
84287;BMP280;74445;55.252;61.092;2024-02-26T12:02:46;144528.19;;;-2.41
84287;BMP280;74445;55.252;61.092;2024-02-26T12:05:16;144488.25;;;-2.57
84287;BMP280;74445;55.252;61.092;2024-02-26T12:07:45;144490.66;;;-2.56
84287;BMP280;74445;55.252;61.092;2024-02-26T12:10:21;144462.81;;;-2.68
84287;BMP280;74445;55.252;61.092;2024-02-26T12:12:58;144439.78;;;-2.77
84287;BMP280;74445;55.252;61.092;2024-02-26T12:15:30;144416.81;;;-2.87
84287;BMP280;74445;55.252;61.092;2024-02-26T12:17:57;144381.66;;;-3.01
84287;BMP280;74445;55.252;61.092;2024-02-26T12:20:26;144352.59;;;-3.13
84287;BMP280;74445;55.252;61.092;2024-02-26T12:22:54;144319.94;;;-3.27
84287;BMP280;74445;55.252;61.092;2024-02-26T12:25:24;144296.91;;;-3.36
84287;BMP280;74445;55.252;61.092;2024-02-26T12:27:52;144273.94;;;-3.46
84287;BMP280;74445;55.252;61.092;2024-02-26T12:30:18;144253.34;;;-3.54
84287;BMP280;74445;55.252;61.092;2024-02-26T12:32:45;144212.19;;;-3.71
84287;BMP280;74445;55.252;61.092;2024-02-26T12:35:12;144175.94;;;-3.86
84287;BMP280;74445;55.252;61.092;2024-02-26T12:37:40;144163.81;;;-3.91
84287;BMP280;74445;55.252;61.092;2024-02-26T12:40:09;144128.72;;;-4.05
84287;BMP280;74445;55.252;61.092;2024-02-26T12:42:35;144102.09;;;-4.16
84287;BMP280;74445;55.252;61.092;2024-02-26T12:45:10;144086.41;;;-4.23
84287;BMP280;74445;55.252;61.092;2024-02-26T12:47:38;144058.56;;;-4.34
84287;BMP280;74445;55.252;61.092;2024-02-26T12:50:06;144031.94;;;-4.45
84287;BMP280;74445;55.252;61.092;2024-02-26T12:52:33;143998.09;;;-4.59
84287;BMP280;74445;55.252;61.092;2024-02-26T12:55:03;143982.38;;;-4.66
84287;BMP280;74445;55.252;61.092;2024-02-26T12:57:31;143953.38;;;-4.78
84287;BMP280;74445;55.252;61.092;2024-02-26T12:59:59;143918.28;;;-4.92
84287;BMP280;74445;55.252;61.092;2024-02-26T13:02:26;143877.19;;;-5.09
84287;BMP280;74445;55.252;61.092;2024-02-26T13:04:53;143845.81;;;-5.22
84287;BMP280;74445;55.252;61.092;2024-02-26T13:07:21;143814.38;;;-5.35
84287;BMP280;74445;55.252;61.092;2024-02-26T13:09:47;143774.50;;;-5.51
84287;BMP280;74445;55.252;61.092;2024-02-26T13:12:17;143743.06;;;-5.64
84287;BMP280;74445;55.252;61.092;2024-02-26T13:14:43;143708.13;;;-5.79
84287;BMP280;74445;55.252;61.092;2024-02-26T13:17:10;143676.72;;;-5.92
84287;BMP280;74445;55.252;61.092;2024-02-26T13:19:37;143642.88;;;-6.06
84287;BMP280;74445;55.252;61.092;2024-02-26T13:22:04;143610.25;;;-6.19
84287;BMP280;74445;55.252;61.092;2024-02-26T13:24:32;143575.25;;;-6.33
84287;BMP280;74445;55.252;61.092;2024-02-26T13:26:59;143540.28;;;-6.48
84287;BMP280;74445;55.252;61.092;2024-02-26T13:29:26;143507.66;;;-6.61
84287;BMP280;74445;55.252;61.092;2024-02-26T13:31:57;143475.09;;;-6.75
84287;BMP280;74445;55.252;61.092;2024-02-26T13:34:25;143440.06;;;-6.89
84287;BMP280;74445;55.252;61.092;2024-02-26T13:36:53;143414.75;;;-7.00
84287;BMP280;74445;55.252;61.092;2024-02-26T13:39:23;143396.63;;;-7.07
84287;BMP280;74445;55.252;61.092;2024-02-26T13:41:50;143389.38;;;-7.10
84287;BMP280;74445;55.252;61.092;2024-02-26T13:44:18;143383.38;;;-7.13
84287;BMP280;74445;55.252;61.092;2024-02-26T13:46:47;143382.16;;;-7.13
84287;BMP280;74445;55.252;61.092;2024-02-26T13:49:17;143377.31;;;-7.15
84287;BMP280;74445;55.252;61.092;2024-02-26T13:51:43;143370.09;;;-7.18